Time;durP1;ratioP1;P1;durP2;ratioP2;P2;SDS_P1;SDS_P2;PMS_P1;PMS_P2;Temp;Humidity;BMP_temperature;BMP_pressure;BME280_temperature;BME280_humidity;BME280_pressure;Samples;Min_cycle;Max_cycle;Signal;HPM_P1;HPM_P2
2023/01/15 00:00:03;;;;;;;27.73;20.20;;;;;;;3.41;96.18;93194.25;5086855;28;20285;-83
2023/01/15 00:02:30;;;;;;;26.93;18.83;;;;;;;3.55;95.22;93180.16;5086088;28;20192;-85
2023/01/15 00:04:55;;;;;;;31.97;21.23;;;;;;;3.53;94.90;93197.66;5088142;28;20231;-85
2023/01/15 00:07:20;;;;;;;32.43;19.37;;;;;;;3.58;95.02;93185.63;5088672;28;20188;-83
2023/01/15 00:09:46;;;;;;;30.10;20.40;;;;;;;3.70;94.94;93186.47;5087844;28;20236;-79
2023/01/15 00:12:11;;;;;;;30.23;20.23;;;;;;;3.74;94.55;93192.75;5089538;28;21273;-86
2023/01/15 00:14:36;;;;;;;26.87;19.03;;;;;;;3.68;94.06;93174.78;5087762;28;20232;-86
2023/01/15 00:17:02;;;;;;;23.87;18.73;;;;;;;3.51;94.37;93169.47;5089181;28;20188;-86
2023/01/15 00:19:27;;;;;;;26.03;18.70;;;;;;;3.45;94.07;93165.19;5088473;28;20236;-85
2023/01/15 00:21:53;;;;;;;28.93;19.93;;;;;;;3.76;93.57;93187.34;5087798;28;20184;-86
2023/01/15 00:29:46;;;;;;;29.13;20.07;;;;;;;3.30;93.88;93151.91;5088998;28;20235;-87
2023/01/15 00:32:11;;;;;;;25.33;18.27;;;;;;;3.70;92.56;93183.09;5089526;28;20196;-87
2023/01/15 00:34:36;;;;;;;24.60;18.67;;;;;;;3.54;92.96;93181.13;5089198;28;20232;-88
2023/01/15 00:37:02;;;;;;;22.10;18.80;;;;;;;3.47;93.93;93183.81;5090360;28;20211;-88
2023/01/15 00:39:27;;;;;;;23.40;18.03;;;;;;;3.52;94.24;93180.59;5074561;28;20247;-87
2023/01/15 00:41:53;;;;;;;31.70;20.67;;;;;;;3.46;94.42;93171.94;5092099;28;20184;-88
2023/01/15 00:44:19;;;;;;;31.57;21.17;;;;;;;3.47;94.97;93188.97;5092637;28;20227;-88
2023/01/15 00:46:45;;;;;;;32.67;19.67;;;;;;;3.20;94.92;93144.75;5093272;28;20184;-88
2023/01/15 00:49:11;;;;;;;41.83;24.90;;;;;;;3.37;94.64;93167.31;5092830;28;20225;-83
2023/01/15 00:51:36;;;;;;;34.70;23.23;;;;;;;2.94;95.91;93134.78;5092585;28;20228;-83
2023/01/15 00:54:02;;;;;;;30.60;20.67;;;;;;;3.10;94.99;93123.84;5091453;28;20185;-86
2023/01/15 00:56:28;;;;;;;34.33;19.87;;;;;;;3.45;94.46;93178.09;5093266;28;20192;-86
2023/01/15 00:58:53;;;;;;;31.33;20.23;;;;;;;3.28;95.39;93165.03;5092152;28;20189;-87
2023/01/15 01:01:19;;;;;;;30.97;21.87;;;;;;;3.49;95.12;93176.66;5092342;28;20210;-87
2023/01/15 01:03:49;;;;;;;32.37;21.53;;;;;;;3.47;95.32;93183.81;5093380;28;20197;-87
2023/01/15 01:06:15;;;;;;;30.00;20.27;;;;;;;3.48;94.70;93185.41;5092288;28;20273;-87
2023/01/15 01:08:42;;;;;;;25.23;18.43;;;;;;;3.62;94.53;93188.56;5090214;28;20186;-87
2023/01/15 01:11:10;;;;;;;28.30;18.93;;;;;;;3.63;93.82;93177.25;5092391;28;20258;-87
2023/01/15 01:13:37;;;;;;;23.63;19.07;;;;;;;3.68;93.98;93177.34;5092103;28;20185;-87
2023/01/15 01:16:03;;;;;;;25.47;18.80;;;;;;;3.64;93.68;93177.03;5092862;28;20228;-87
2023/01/15 01:18:28;;;;;;;24.80;17.73;;;;;;;3.59;95.00;93171.75;5092791;28;20192;-85
2023/01/15 01:20:54;;;;;;;25.03;19.20;;;;;;;3.58;94.39;93169.38;5092028;28;20231;-87
2023/01/15 01:23:22;;;;;;;28.10;17.47;;;;;;;3.56;94.60;93172.19;5091791;28;20188;-87
2023/01/15 01:25:47;;;;;;;24.30;17.93;;;;;;;3.65;94.57;93168.25;5091377;28;20296;-87
2023/01/15 01:28:13;;;;;;;25.30;18.00;;;;;;;3.51;95.05;93159.16;5089386;28;20189;-88
2023/01/15 01:30:38;;;;;;;24.33;17.27;;;;;;;3.38;95.02;93141.28;5092819;28;20275;-87
2023/01/15 01:33:04;;;;;;;21.67;17.50;;;;;;;3.46;95.75;93147.91;5091341;28;20200;-87
2023/01/15 01:35:29;;;;;;;23.83;17.47;;;;;;;3.35;95.85;93133.97;5091693;28;20224;-88
2023/01/15 01:37:55;;;;;;;25.03;18.57;;;;;;;3.49;95.84;93142.31;5091868;28;20218;-85
2023/01/15 01:40:20;;;;;;;24.73;17.50;;;;;;;3.50;95.66;93142.09;5091411;28;20224;-84
2023/01/15 01:42:45;;;;;;;23.23;17.23;;;;;;;3.50;94.16;93142.09;5092070;28;20196;-85
2023/01/15 01:45:37;;;;;;;27.40;17.30;;;;;;;3.60;94.55;93162.97;5090548;28;20251;-87
2023/01/15 01:48:05;;;;;;;21.07;16.27;;;;;;;3.58;93.30;93167.56;5087185;28;20188;-86
2023/01/15 01:50:33;;;;;;;23.10;16.63;;;;;;;3.67;92.59;93149.97;5091005;28;20229;-88
2023/01/15 01:53:05;;;;;;;20.97;15.07;;;;;;;3.70;92.17;93141.78;5093162;28;20191;-87
2023/01/15 01:55:33;;;;;;;22.80;16.47;;;;;;;3.78;92.67;93159.53;5091427;28;20227;-87
2023/01/15 01:58:01;;;;;;;22.20;16.40;;;;;;;3.59;92.59;93140.75;5091368;28;20192;-87
2023/01/15 02:00:28;;;;;;;23.63;17.30;;;;;;;3.71;93.00;93149.31;5090005;28;20227;-79
2023/01/15 02:02:54;;;;;;;18.33;15.27;;;;;;;3.77;92.19;93157.94;5091260;28;20177;-87
2023/01/15 02:05:31;;;;;;;20.23;16.13;;;;;;;3.70;91.59;93142.56;5091222;28;20307;-87
2023/01/15 02:07:57;;;;;;;22.00;14.77;;;;;;;3.65;89.95;93159.72;5091745;28;20172;-86
2023/01/15 02:10:23;;;;;;;15.03;13.60;;;;;;;3.50;90.14;93159.38;5092029;28;20259;-88
2023/01/15 02:12:58;;;;;;;16.97;14.27;;;;;;;3.38;90.94;93146.44;5091430;28;20184;-86
2023/01/15 02:15:31;;;;;;;16.73;14.97;;;;;;;3.59;90.28;93161.41;5091358;28;20223;-87
2023/01/15 02:18:38;;;;;;;15.40;13.93;;;;;;;3.77;90.24;93145.81;5092280;28;20177;-88
2023/01/15 02:21:18;;;;;;;18.30;14.23;;;;;;;3.84;89.48;93158.63;5086222;28;20224;-88
2023/01/15 02:24:02;;;;;;;14.13;12.90;;;;;;;3.70;88.36;93152.91;5091439;28;20184;-88
2023/01/15 02:26:55;;;;;;;14.83;13.63;;;;;;;3.83;88.55;93136.41;5091244;28;20272;-88
2023/01/15 02:29:47;;;;;;;15.73;14.37;;;;;;;3.50;88.15;93144.69;5104031;28;20216;-87
2023/01/15 02:32:19;;;;;;;17.40;15.30;;;;;;;3.59;87.96;93134.81;5084280;28;20199;-87
2023/01/15 02:34:52;;;;;;;23.53;17.90;;;;;;;3.58;89.56;93133.25;5122557;28;20239;-86
2023/01/15 02:37:24;;;;;;;23.40;18.27;;;;;;;3.61;91.22;93153.44;5090646;28;20189;-83
2023/01/15 02:39:51;;;;;;;24.90;18.13;;;;;;;3.54;91.85;93132.09;5089304;28;20212;-87
2023/01/15 02:42:19;;;;;;;21.80;16.97;;;;;;;3.58;91.34;93128.84;5091618;28;20188;-88
2023/01/15 02:44:49;;;;;;;17.70;16.00;;;;;;;3.50;90.12;93131.78;5089795;28;20362;-88
2023/01/15 02:47:17;;;;;;;17.13;14.90;;;;;;;3.42;90.24;93124.38;5091463;28;20211;-88
2023/01/15 02:49:45;;;;;;;23.13;16.40;;;;;;;3.74;89.93;93128.19;5089677;28;20269;-86
2023/01/15 02:52:23;;;;;;;16.87;15.23;;;;;;;3.78;89.24;93133.69;5091017;28;20220;-87
2023/01/15 02:55:16;;;;;;;17.10;14.83;;;;;;;3.74;89.80;93133.34;5089983;28;20232;-87
2023/01/15 02:57:45;;;;;;;17.50;15.70;;;;;;;3.72;91.15;93135.38;5090525;28;20193;-86
2023/01/15 03:00:14;;;;;;;16.73;14.90;;;;;;;3.73;90.42;93139.53;5089260;28;20323;-81
2023/01/15 03:02:48;;;;;;;18.30;15.67;;;;;;;3.62;90.76;93124.81;5090474;28;20253;-80
2023/01/15 03:05:24;;;;;;;18.77;15.50;;;;;;;3.68;90.60;93133.47;5089743;28;20223;-81
2023/01/15 03:07:59;;;;;;;24.00;17.20;;;;;;;3.52;90.55;93132.31;5091976;28;20251;-80
2023/01/15 03:10:57;;;;;;;19.47;17.43;;;;;;;3.52;91.91;93144.47;5089360;28;20215;-80
2023/01/15 03:13:34;;;;;;;19.93;15.67;;;;;;;3.43;93.07;93136.25;5075741;28;20193;-79
2023/01/15 03:19:01;;;;;;;25.30;17.73;;;;;;;3.48;93.76;93145.91;5089719;28;20231;-80
2023/01/15 03:21:49;;;;;;;28.23;19.60;;;;;;;3.54;93.81;93153.53;5090192;28;20214;-80
2023/01/15 03:24:20;;;;;;;19.30;17.27;;;;;;;3.58;93.39;93151.31;5063205;28;20225;-81
2023/01/15 03:26:46;;;;;;;21.03;16.43;;;;;;;3.55;92.45;93146.59;5089986;28;20181;-80
2023/01/15 03:29:13;;;;;;;21.87;16.30;;;;;;;3.51;92.59;93148.03;5088967;28;20231;-80
2023/01/15 03:31:39;;;;;;;20.00;15.47;;;;;;;3.48;93.10;93128.63;5089555;28;20193;-80
2023/01/15 03:34:06;;;;;;;18.40;16.03;;;;;;;3.59;93.03;93139.97;5090035;28;20214;-77
2023/01/15 03:36:32;;;;;;;20.03;16.80;;;;;;;3.54;92.98;93127.72;5088957;28;20185;-81
2023/01/15 03:38:58;;;;;;;20.13;17.20;;;;;;;3.66;92.55;93148.41;5089341;28;20193;-80
2023/01/15 03:41:45;;;;;;;23.90;16.43;;;;;;;3.52;93.16;93144.47;5088623;28;20219;-81
2023/01/15 03:44:20;;;;;;;21.90;16.50;;;;;;;3.45;94.30;93149.72;5089044;28;20243;-80
2023/01/15 03:47:23;;;;;;;25.03;17.80;;;;;;;3.36;95.29;93143.31;5088979;28;20176;-80
2023/01/15 03:49:59;;;;;;;27.40;19.43;;;;;;;3.38;94.65;93133.53;5088792;28;20285;-77
2023/01/15 03:52:42;;;;;;;23.63;18.37;;;;;;;3.51;94.32;93150.63;5088540;28;20192;-77
2023/01/15 03:55:16;;;;;;;26.60;17.83;;;;;;;3.46;94.10;93147.91;5089069;28;20240;-81
2023/01/15 03:57:50;;;;;;;21.33;17.67;;;;;;;3.52;94.23;93150.38;5090762;28;20181;-80
2023/01/15 04:00:23;;;;;;;24.80;17.23;;;;;;;3.44;94.00;93148.13;5089151;28;20231;-82
2023/01/15 04:02:51;;;;;;;27.67;17.77;;;;;;;3.50;94.56;93139.53;5088883;28;20193;-81
2023/01/15 04:05:17;;;;;;;20.97;16.83;;;;;;;3.48;93.90;93133.78;5088351;28;20243;-80
2023/01/15 04:07:44;;;;;;;24.70;17.77;;;;;;;3.53;94.50;93143.44;5089583;28;20185;-80
2023/01/15 04:10:10;;;;;;;23.13;16.70;;;;;;;3.37;93.80;93129.41;5089726;28;20224;-79
2023/01/15 04:12:36;;;;;;;21.40;18.00;;;;;;;3.30;93.62;93139.00;5088432;28;20252;-80
2023/01/15 04:15:02;;;;;;;27.83;17.90;;;;;;;3.33;94.65;93146.34;5089346;28;20236;-80
2023/01/15 04:17:27;;;;;;;26.87;17.50;;;;;;;3.37;95.31;93131.19;5089591;28;20206;-79
2023/01/15 04:19:52;;;;;;;26.57;18.83;;;;;;;3.23;95.09;93125.44;5088784;28;20228;-81
2023/01/15 04:22:18;;;;;;;22.90;17.73;;;;;;;3.31;95.92;93138.03;5089530;28;20196;-79
2023/01/15 04:24:43;;;;;;;21.90;18.27;;;;;;;3.16;95.51;93124.75;5089029;28;20326;-81
2023/01/15 04:27:08;;;;;;;22.87;17.77;;;;;;;3.24;95.57;93140.69;5091719;28;20188;-80
2023/01/15 04:29:34;;;;;;;23.50;17.57;;;;;;;3.24;94.82;93148.44;5088645;28;20224;-79
2023/01/15 04:31:59;;;;;;;23.17;18.17;;;;;;;3.36;94.98;93148.47;5089863;28;20279;-80
2023/01/15 04:34:26;;;;;;;24.37;18.57;;;;;;;3.35;94.38;93139.16;5088592;28;20228;-81
2023/01/15 04:36:51;;;;;;;25.77;19.13;;;;;;;3.32;94.52;93144.75;5089504;28;20264;-82
2023/01/15 04:39:17;;;;;;;20.47;17.27;;;;;;;3.25;94.68;93133.75;5088767;28;20228;-80
2023/01/15 04:44:28;;;;;;;24.23;17.67;;;;;;;3.06;95.20;93130.47;5087218;28;20254;-81
2023/01/15 04:46:54;;;;;;;22.10;17.10;;;;;;;3.08;95.62;93150.88;5088856;28;20203;-80
2023/01/15 04:49:19;;;;;;;19.03;17.03;;;;;;;3.09;95.32;93155.00;5086857;28;20223;-80
2023/01/15 04:51:45;;;;;;;20.67;15.83;;;;;;;2.89;95.96;93131.28;5089721;28;20229;-80
2023/01/15 04:54:12;;;;;;;17.53;14.67;;;;;;;2.87;96.26;93136.66;5071545;28;20240;-81
2023/01/15 04:56:40;;;;;;;18.43;15.47;;;;;;;2.93;96.76;93150.47;5088020;28;20212;-80
2023/01/15 04:59:06;;;;;;;17.27;15.43;;;;;;;2.84;96.75;93146.63;5089565;28;20202;-81
2023/01/15 05:01:32;;;;;;;21.63;16.33;;;;;;;1.89;96.87;93007.53;5090501;28;20199;-81
2023/01/15 05:03:57;;;;;;;17.90;15.40;;;;;;;2.66;97.62;93136.34;5088872;28;20199;-82
2023/01/15 05:06:24;;;;;;;21.90;15.77;;;;;;;2.86;96.79;93152.34;5088572;28;20237;-83
2023/01/15 05:08:50;;;;;;;19.87;16.73;;;;;;;2.87;96.79;93153.91;5089220;28;20188;-81
2023/01/15 05:11:15;;;;;;;22.60;16.87;;;;;;;2.86;95.81;93144.63;5088876;28;20215;-80
2023/01/15 05:13:40;;;;;;;25.00;15.90;;;;;;;2.83;95.80;93150.22;5089886;28;20184;-80
2023/01/15 05:16:17;;;;;;;19.37;16.77;;;;;;;2.82;96.19;93154.56;5088577;28;20216;-81
2023/01/15 05:18:44;;;;;;;18.10;16.20;;;;;;;2.80;95.28;93154.00;5088303;28;20185;-80
2023/01/15 05:21:15;;;;;;;20.43;16.70;;;;;;;2.69;95.37;93141.06;5087315;28;20212;-80
2023/01/15 05:23:41;;;;;;;19.13;17.13;;;;;;;2.68;95.46;93147.22;5090431;28;20177;-80
2023/01/15 05:26:06;;;;;;;18.50;16.10;;;;;;;2.40;95.51;93123.78;5091515;28;20228;-81
2023/01/15 05:28:31;;;;;;;19.03;14.43;;;;;;;2.46;95.85;93141.72;5098347;28;20231;-81
2023/01/15 05:30:57;;;;;;;17.17;15.37;;;;;;;2.42;95.56;93129.50;5092108;28;20281;-81
2023/01/15 05:33:22;;;;;;;18.63;16.63;;;;;;;2.43;96.31;93149.13;5092856;28;20191;-81
2023/01/15 05:35:48;;;;;;;18.27;16.33;;;;;;;2.40;96.02;93150.34;5091064;28;20243;-87
2023/01/15 05:38:13;;;;;;;16.37;14.67;;;;;;;2.36;95.93;93148.41;5095990;28;20248;-84
2023/01/15 05:40:38;;;;;;;18.47;15.97;;;;;;;2.36;96.84;93143.25;5092195;28;20278;-89
2023/01/15 05:43:04;;;;;;;16.53;14.63;;;;;;;2.29;96.40;93142.56;5091906;28;20241;-84
2023/01/15 05:45:29;;;;;;;16.97;15.20;;;;;;;2.17;96.73;93128.78;5091739;28;20232;-84
2023/01/15 05:47:54;;;;;;;21.10;15.57;;;;;;;2.22;96.39;93139.25;5092830;28;20814;-85
2023/01/15 05:50:20;;;;;;;20.20;16.27;;;;;;;2.15;97.42;93139.31;5091469;28;20718;-83
2023/01/15 05:52:45;;;;;;;19.70;15.53;;;;;;;2.30;96.92;93147.50;5090238;28;20188;-85
2023/01/15 05:55:11;;;;;;;19.70;15.43;;;;;;;2.35;95.83;93154.56;5091541;28;20243;-86
2023/01/15 05:57:36;;;;;;;17.00;15.27;;;;;;;2.33;95.43;93156.56;5092209;28;20185;-87
2023/01/15 06:00:03;;;;;;;19.13;16.00;;;;;;;2.24;96.14;93166.34;5091306;28;20224;-84
2023/01/15 06:02:29;;;;;;;25.10;17.30;;;;;;;2.30;95.64;93164.72;5091934;28;20273;-86
2023/01/15 06:04:54;;;;;;;19.07;17.00;;;;;;;2.40;95.09;93165.00;5089964;28;20259;-86
2023/01/15 06:07:19;;;;;;;18.43;15.83;;;;;;;2.35;95.22;93141.69;5092298;28;20189;-87
2023/01/15 06:09:45;;;;;;;16.63;14.97;;;;;;;2.54;94.83;93153.53;5091222;28;20300;-87
2023/01/15 06:12:10;;;;;;;15.63;14.00;;;;;;;2.68;94.11;93160.09;5091745;28;20185;-86
2023/01/15 06:14:36;;;;;;;14.60;13.03;;;;;;;2.68;94.02;93165.25;5090289;28;20225;-86
2023/01/15 06:17:01;;;;;;;15.17;13.67;;;;;;;2.72;93.40;93151.75;5091680;28;20177;-87
2023/01/15 06:19:26;;;;;;;17.90;13.87;;;;;;;2.96;92.81;93165.50;5091346;28;20284;-90
2023/01/15 06:21:52;;;;;;;16.33;14.83;;;;;;;2.70;92.86;93156.31;5092614;28;20192;-87
2023/01/15 06:24:18;;;;;;;15.50;14.00;;;;;;;2.59;92.99;93122.75;5090688;28;20262;-85
2023/01/15 06:26:44;;;;;;;14.60;13.20;;;;;;;2.78;93.73;93148.28;5091033;28;20184;-86
2023/01/15 06:29:10;;;;;;;22.47;16.57;;;;;;;2.73;94.91;93155.09;5090641;28;20228;-86
2023/01/15 06:31:36;;;;;;;16.67;14.70;;;;;;;2.65;93.14;93111.56;5091927;28;20681;-86
2023/01/15 06:34:01;;;;;;;15.13;13.63;;;;;;;2.89;93.33;93154.50;5090637;28;20192;-86
2023/01/15 06:36:27;;;;;;;16.03;14.37;;;;;;;2.81;94.06;93144.47;5088980;28;20704;-85
2023/01/15 06:38:53;;;;;;;15.00;13.43;;;;;;;3.03;93.89;93145.56;5090908;28;20219;-87
2023/01/15 06:47:20;;;;;;;15.97;14.47;;;;;;;3.22;92.45;93149.69;5089788;28;20269;-87
2023/01/15 06:49:47;;;;;;;16.07;14.77;;;;;;;3.46;92.02;93166.78;5089858;28;20292;-78
2023/01/15 06:52:12;;;;;;;14.20;13.00;;;;;;;3.38;92.13;93168.91;5089555;28;20223;-83
2023/01/15 06:54:38;;;;;;;15.60;14.10;;;;;;;3.45;92.42;93165.19;5089186;28;20640;-78
2023/01/15 06:57:03;;;;;;;13.43;12.23;;;;;;;3.50;92.62;93156.78;5090397;28;20200;-80
2023/01/15 06:59:30;;;;;;;15.37;13.73;;;;;;;3.68;91.46;93164.44;5090558;28;20232;-80
2023/01/15 07:01:55;;;;;;;14.20;13.10;;;;;;;3.67;91.44;93152.56;5122345;28;20243;-81
2023/01/15 07:04:21;;;;;;;14.20;12.90;;;;;;;3.70;90.89;93142.56;5088857;28;20232;-84
2023/01/15 07:06:46;;;;;;;13.87;12.60;;;;;;;3.48;91.94;93128.63;5088399;28;20171;-81
2023/01/15 07:09:12;;;;;;;14.17;12.80;;;;;;;3.78;91.48;93155.16;5087538;28;20229;-79
2023/01/15 07:11:48;;;;;;;13.60;12.30;;;;;;;3.68;92.10;93151.53;5089643;28;20192;-88
2023/01/15 07:14:22;;;;;;;15.53;13.93;;;;;;;3.83;91.33;93131.25;5089395;28;20306;-84
2023/01/15 07:16:48;;;;;;;14.93;13.53;;;;;;;4.17;90.22;93164.03;5089623;28;20275;-78
2023/01/15 07:19:13;;;;;;;16.70;14.03;;;;;;;4.08;87.07;93166.16;5089593;28;20232;-78
2023/01/15 07:21:39;;;;;;;15.87;14.17;;;;;;;4.23;85.96;93145.03;5089837;28;20185;-78
2023/01/15 07:24:05;;;;;;;14.97;13.50;;;;;;;4.45;85.79;93166.69;5089302;28;20197;-79
2023/01/15 07:26:31;;;;;;;16.53;14.83;;;;;;;4.51;85.86;93160.59;5102634;28;20265;-78
2023/01/15 07:28:56;;;;;;;19.87;16.40;;;;;;;4.42;84.64;93143.88;5087494;28;20211;-78
2023/01/15 07:31:21;;;;;;;21.53;17.27;;;;;;;4.54;84.01;93171.28;5090884;28;20173;-74
2023/01/15 07:33:47;;;;;;;17.83;15.87;;;;;;;4.46;85.00;93161.28;5088039;28;20199;-75
2023/01/15 07:36:12;;;;;;;19.50;15.93;;;;;;;4.52;84.08;93172.50;5089093;28;20239;-79
2023/01/15 07:38:38;;;;;;;20.37;16.30;;;;;;;4.24;85.15;93138.84;5091647;28;20193;-79
2023/01/15 07:51:59;;;;;;;15.43;13.93;;;;;;;4.22;85.97;93167.50;5088628;28;20286;-82
2023/01/15 07:54:25;;;;;;;16.63;14.93;;;;;;;4.79;84.62;93174.34;5088808;28;20232;-85
2023/01/15 07:56:52;;;;;;;16.53;14.90;;;;;;;4.93;83.88;93173.06;5087888;28;20177;-82
2023/01/15 07:59:17;;;;;;;16.43;14.67;;;;;;;4.91;82.31;93177.69;5088401;28;20228;-79
2023/01/15 08:01:43;;;;;;;13.57;12.33;;;;;;;4.43;82.69;93161.75;5087914;28;20191;-82
2023/01/15 08:04:08;;;;;;;15.10;13.63;;;;;;;4.30;84.50;93158.59;5087986;28;20239;-84
2023/01/15 08:06:35;;;;;;;14.97;13.63;;;;;;;4.07;84.68;93164.59;5087247;28;20197;-79
2023/01/15 08:09:00;;;;;;;18.67;15.07;;;;;;;4.14;85.08;93174.81;5087631;28;20185;-82
2023/01/15 08:16:55;;;;;;;16.80;15.23;;;;;;;4.51;83.73;93151.03;5087782;28;20191;-86
2023/01/15 08:19:20;;;;;;;18.10;14.67;;;;;;;4.87;81.50;93166.22;5087709;28;20232;-83
2023/01/15 08:21:46;;;;;;;19.73;17.20;;;;;;;4.78;80.82;93162.44;5087909;28;20184;-79
2023/01/15 08:24:12;;;;;;;19.33;15.63;;;;;;;4.40;82.61;93136.34;5087460;28;20255;-76
2023/01/15 08:26:37;;;;;;;19.50;16.67;;;;;;;4.79;92.05;93158.06;5103487;28;20193;-80
2023/01/15 08:29:03;;;;;;;22.67;16.73;;;;;;;5.28;91.24;93187.66;5086275;28;20229;-74
2023/01/15 08:31:28;;;;;;;23.13;16.77;;;;;;;5.38;82.97;93180.88;5090269;28;20183;-78
2023/01/15 08:33:54;;;;;;;22.33;17.77;;;;;;;5.32;82.00;93181.03;5088395;28;20185;-80
2023/01/15 08:36:19;;;;;;;22.70;15.93;;;;;;;5.36;81.94;93177.72;5088040;28;20216;-80
2023/01/15 08:38:48;;;;;;;19.97;16.53;;;;;;;5.46;80.17;93197.84;5088445;28;20743;-80
2023/01/15 08:41:14;;;;;;;19.17;17.13;;;;;;;5.63;79.27;93199.44;5087470;28;20207;-80
2023/01/15 08:43:40;;;;;;;17.10;14.77;;;;;;;5.53;77.25;93190.69;5088969;28;20211;-79
2023/01/15 08:46:05;;;;;;;18.70;15.20;;;;;;;5.36;78.26;93195.06;5088748;28;20231;-80
2023/01/15 08:48:31;;;;;;;17.90;15.03;;;;;;;5.22;78.78;93173.06;5090091;28;20207;-80
2023/01/15 08:50:57;;;;;;;14.90;13.57;;;;;;;5.40;79.06;93188.41;5087372;28;20228;-80
2023/01/15 08:53:23;;;;;;;21.57;16.17;;;;;;;5.61;77.64;93187.72;5088699;28;20188;-80
2023/01/15 08:55:49;;;;;;;19.07;17.00;;;;;;;5.55;77.69;93191.25;5088448;28;20239;-81
2023/01/15 08:58:15;;;;;;;16.77;14.73;;;;;;;5.32;79.14;93183.63;5089928;28;20203;-81
2023/01/15 09:00:41;;;;;;;20.03;14.93;;;;;;;5.31;79.03;93193.16;5090727;28;20216;-80
2023/01/15 09:03:08;;;;;;;17.17;15.23;;;;;;;5.48;78.79;93183.63;5091479;28;20193;-81
2023/01/15 09:05:36;;;;;;;16.57;14.17;;;;;;;5.28;79.38;93192.84;5125308;27;20276;-81
2023/01/15 09:08:03;;;;;;;18.73;16.73;;;;;;;5.23;78.92;93174.66;5092955;28;20222;-80
2023/01/15 09:10:28;;;;;;;18.87;16.07;;;;;;;5.62;78.12;93184.13;5093547;28;20223;-82
2023/01/15 09:12:54;;;;;;;18.23;15.23;;;;;;;5.47;77.86;93157.97;5092636;28;20181;-81
2023/01/15 09:15:19;;;;;;;18.47;15.73;;;;;;;5.58;76.50;93134.63;5092521;28;20217;-80
2023/01/15 09:17:45;;;;;;;16.93;15.23;;;;;;;5.71;76.16;93151.66;5093882;28;20192;-80
2023/01/15 09:20:14;;;;;;;18.40;15.90;;;;;;;5.87;77.73;93187.16;5091405;28;20230;-81
2023/01/15 09:22:40;;;;;;;18.03;15.80;;;;;;;5.90;76.69;93165.97;5091469;28;20248;-80
2023/01/15 09:25:06;;;;;;;21.07;16.10;;;;;;;6.14;77.55;93173.34;5091582;28;20215;-81
2023/01/15 09:27:33;;;;;;;19.13;15.90;;;;;;;6.11;75.42;93154.88;5091644;28;20269;-80
2023/01/15 09:29:58;;;;;;;22.73;17.17;;;;;;;6.15;75.77;93168.91;5091718;28;20220;-81
2023/01/15 09:32:24;;;;;;;19.90;17.60;;;;;;;6.18;76.34;93168.44;5091587;28;20199;-81
2023/01/15 09:34:50;;;;;;;18.60;16.70;;;;;;;6.05;75.69;93163.59;5092462;28;20311;-81
2023/01/15 09:37:15;;;;;;;20.27;16.67;;;;;;;5.55;76.29;93122.13;5091535;28;20196;-80
2023/01/15 09:39:40;;;;;;;19.47;16.33;;;;;;;5.87;76.69;93145.69;5088324;28;20232;-83
2023/01/15 09:42:26;;;;;;;19.20;16.80;;;;;;;6.18;75.57;93137.31;5090749;28;20193;-92
2023/01/15 09:45:22;;;;;;;22.13;18.03;;;;;;;6.15;75.15;93154.16;5090550;28;20228;-82
2023/01/15 09:47:57;;;;;;;18.17;16.17;;;;;;;6.28;75.97;93153.03;5089877;28;20193;-78
2023/01/15 09:50:41;;;;;;;18.77;16.20;;;;;;;6.29;77.38;93147.59;5090300;28;20224;-77
2023/01/15 09:53:31;;;;;;;22.63;16.67;;;;;;;6.39;74.83;93139.97;5089650;28;20256;-75
2023/01/15 09:56:00;;;;;;;23.70;17.70;;;;;;;6.20;75.03;93133.50;5087775;28;20267;-75
2023/01/15 09:58:37;;;;;;;25.70;17.93;;;;;;;5.93;78.51;93124.03;5089167;28;20291;-74
2023/01/15 10:01:04;;;;;;;21.67;18.37;;;;;;;6.29;75.85;93108.72;5088348;28;20243;-75
2023/01/15 10:03:48;;;;;;;25.00;19.97;;;;;;;6.38;75.60;93122.06;5089596;28;20189;-82
2023/01/15 10:06:26;;;;;;;26.27;18.87;;;;;;;6.35;75.27;93117.38;5089332;28;20626;-85
2023/01/15 10:09:14;;;;;;;23.33;19.10;;;;;;;6.24;75.93;93097.50;5089954;28;20196;-86
2023/01/15 10:14:41;;;;;;;26.30;18.30;;;;;;;6.74;75.43;93085.13;5090885;28;20227;-86
2023/01/15 10:17:40;;;;;;;20.93;18.27;;;;;;;6.97;74.00;93099.66;5090285;28;20189;-86
2023/01/15 10:20:14;;;;;;;21.67;17.90;;;;;;;6.86;73.56;93093.59;5088632;28;20229;-85
2023/01/15 10:23:08;;;;;;;22.37;16.57;;;;;;;6.67;73.36;93088.94;5089402;28;20177;-86
2023/01/15 10:25:44;;;;;;;23.73;18.50;;;;;;;5.96;76.79;93071.75;5088543;28;20236;-86
2023/01/15 10:28:22;;;;;;;23.43;19.13;;;;;;;6.27;77.07;93074.47;5089354;28;20176;-85
2023/01/15 10:30:54;;;;;;;24.73;18.20;;;;;;;6.68;74.47;93070.53;5088370;28;20216;-86
2023/01/15 10:33:48;;;;;;;20.73;16.13;;;;;;;6.53;74.16;93065.97;5089989;28;20235;-85
2023/01/15 10:36:19;;;;;;;21.60;17.87;;;;;;;6.39;75.00;93061.41;5065357;28;20233;-86
2023/01/15 10:39:14;;;;;;;23.60;17.30;;;;;;;6.54;75.24;93058.97;5093730;28;20196;-88
2023/01/15 10:42:13;;;;;;;23.00;18.03;;;;;;;6.61;75.17;93059.56;5077887;28;20208;-88
2023/01/15 10:45:16;;;;;;;24.47;18.27;;;;;;;6.63;75.43;93057.50;5087695;28;20233;-88
2023/01/15 10:47:45;;;;;;;24.20;18.57;;;;;;;6.33;75.08;93042.38;5087862;28;20197;-84
2023/01/15 10:50:23;;;;;;;24.63;18.27;;;;;;;6.31;75.62;93046.25;5089072;28;20239;-88
2023/01/15 10:53:01;;;;;;;24.37;19.80;;;;;;;6.15;76.62;93039.31;5089338;28;20260;-89
2023/01/15 10:55:37;;;;;;;27.90;18.47;;;;;;;6.18;76.85;93018.09;5088050;28;20232;-89
2023/01/15 10:58:09;;;;;;;24.93;18.40;;;;;;;6.48;77.30;93028.81;5103349;28;20196;-88
2023/01/15 11:00:36;;;;;;;25.40;19.30;;;;;;;6.65;76.33;93029.50;5090323;28;20220;-86
2023/01/15 11:03:07;;;;;;;24.20;17.43;;;;;;;6.83;74.45;93023.22;5088727;28;20270;-85
2023/01/15 11:05:34;;;;;;;23.97;17.67;;;;;;;6.97;73.73;93025.19;5088605;28;20220;-85
2023/01/15 11:08:03;;;;;;;24.67;18.87;;;;;;;6.86;73.98;93007.16;5088558;28;20248;-86
2023/01/15 11:10:28;;;;;;;24.53;19.67;;;;;;;7.05;73.02;93009.13;5088315;28;20220;-90
2023/01/15 11:21:26;;;;;;;23.20;17.73;;;;;;;6.74;74.39;93009.88;5085435;28;20243;-87
2023/01/15 11:23:54;;;;;;;21.47;18.10;;;;;;;6.61;75.44;92997.31;5085909;28;20185;-87
2023/01/15 11:26:24;;;;;;;22.20;16.83;;;;;;;6.75;75.14;92988.13;5067253;28;20215;-87
2023/01/15 11:28:51;;;;;;;22.03;16.60;;;;;;;6.43;74.99;92950.97;5077222;28;20284;-85
2023/01/15 11:31:17;;;;;;;21.37;17.00;;;;;;;6.90;74.62;92996.03;5068704;28;20222;-89
2023/01/15 11:34:00;;;;;;;23.17;16.80;;;;;;;6.76;75.19;92989.69;5069026;28;20190;-88
2023/01/15 11:36:28;;;;;;;18.43;16.40;;;;;;;6.64;75.01;92970.88;5088185;28;20223;-88
2023/01/15 11:38:53;;;;;;;21.60;17.27;;;;;;;6.60;76.11;92980.16;5089394;28;20191;-86
2023/01/15 11:41:19;;;;;;;24.03;17.07;;;;;;;6.55;75.58;92982.75;5088049;28;20176;-86
2023/01/15 11:52:13;;;;;;;18.77;16.60;;;;;;;6.18;78.14;92966.25;5091194;28;20258;-85
2023/01/15 11:54:41;;;;;;;17.87;16.03;;;;;;;6.22;77.31;92962.97;5088047;28;20232;-82
2023/01/15 11:57:07;;;;;;;17.47;15.63;;;;;;;6.03;77.92;92963.50;5087187;28;20215;-81
2023/01/15 11:59:33;;;;;;;20.63;16.03;;;;;;;5.80;78.44;92932.63;5087997;28;20224;-82
2023/01/15 12:02:03;;;;;;;17.17;15.57;;;;;;;5.89;78.93;92957.13;5087449;28;20207;-81
2023/01/15 12:04:53;;;;;;;16.17;14.53;;;;;;;5.84;78.97;92944.09;5087255;28;20233;-79
2023/01/15 12:07:23;;;;;;;17.83;15.93;;;;;;;5.80;79.63;92958.53;5088904;28;20177;-79
2023/01/15 12:10:10;;;;;;;20.43;17.33;;;;;;;5.75;80.27;92950.69;5088163;28;20912;-80
2023/01/15 12:12:45;;;;;;;19.60;15.73;;;;;;;5.82;80.34;92946.16;5087214;28;20192;-84
2023/01/15 12:15:32;;;;;;;20.93;15.57;;;;;;;5.82;80.01;92946.16;5086937;28;20224;-82
2023/01/15 12:18:19;;;;;;;19.57;15.50;;;;;;;5.63;81.04;92942.25;5086568;28;20530;-85
2023/01/15 12:20:55;;;;;;;18.90;16.60;;;;;;;5.51;81.46;92934.59;5087150;28;20296;-83
2023/01/15 12:23:53;;;;;;;17.93;15.87;;;;;;;5.59;81.90;92936.78;5085861;28;20220;-81
2023/01/15 12:26:38;;;;;;;31.93;23.60;;;;;;;5.72;81.95;92939.00;5066279;28;20209;-83
2023/01/15 12:29:13;;;;;;;18.43;16.57;;;;;;;5.71;81.81;92906.34;5065462;28;20190;-77